Las Vegas, Nevada
Traffic Map
Current Weather Conditions
Las Vegas, Nevada
Broken Clouds
Broken Clouds
64°
Feels Like: 64°
Wind Chill: 64° Ceiling: 20000
Heat Index: 64° Visibility: 10mi
Dew Point: 36° Wind: 20mph
Humidity: 35% Direction: 340° (NNW)
Pressure: 29.98in Gusts: 0mph
Raw Report DataKLAS 251656Z 34017KT 10SM SCT060 SCT100 BKN200 18/02 A2998 RMK AO2 SLP137 T01780022
Traffic Incident Summary
Active as of:
Severity:
Category:
InformationThere was an issue retrieving the traffic information for this location. Please try a different location or try again shortly.
Advertisements
Track Severe Weather on mobile